createdAt,value
2016-03-06T00:00:24.998Z,0
2016-03-06T00:01:24.970Z,0
2016-03-06T00:02:24.987Z,0
2016-03-06T00:03:25.006Z,0
2016-03-06T00:04:24.993Z,0
2016-03-06T00:05:25.026Z,0
2016-03-06T00:06:25.014Z,0
2016-03-06T00:07:25.022Z,0
2016-03-06T00:08:25.117Z,0
2016-03-06T00:09:25.042Z,0
2016-03-06T00:10:25.059Z,0
2016-03-06T00:11:25.049Z,0
2016-03-06T00:12:25.053Z,0
2016-03-06T00:13:25.071Z,0
2016-03-06T00:14:25.089Z,0
2016-03-06T00:15:39.185Z,0
2016-03-06T00:16:25.094Z,0
2016-03-06T00:17:25.065Z,0
2016-03-06T00:18:25.099Z,0
2016-03-06T00:19:25.118Z,0
2016-03-06T00:20:25.090Z,0
2016-03-06T00:21:25.123Z,0
2016-03-06T00:22:25.126Z,0
2016-03-06T00:23:25.128Z,0
2016-03-06T00:24:25.147Z,0
2016-03-06T00:25:25.181Z,0
2016-03-06T00:26:25.153Z,0
2016-03-06T00:27:25.155Z,0
2016-03-06T00:28:25.159Z,0
2016-03-06T00:29:25.176Z,0
2016-03-06T00:30:25.211Z,0
2016-03-06T00:31:25.181Z,0
2016-03-06T00:32:25.184Z,0
2016-03-06T00:33:25.186Z,0
2016-03-06T00:34:25.222Z,0
2016-03-06T00:35:25.224Z,0
2016-03-06T00:36:25.211Z,0
2016-03-06T00:37:25.229Z,0
2016-03-06T00:38:25.232Z,0
2016-03-06T00:39:25.235Z,0
2016-03-06T00:40:25.237Z,0
2016-03-06T00:41:25.271Z,0
2016-03-06T00:42:25.243Z,0
2016-03-06T00:43:25.276Z,0
2016-03-06T00:44:25.264Z,0
2016-03-06T00:45:25.266Z,0
2016-03-06T00:46:25.300Z,0
2016-03-06T00:47:25.287Z,0
2016-03-06T00:48:25.305Z,0
2016-03-06T00:49:25.292Z,0
2016-03-06T00:50:25.296Z,0
2016-03-06T00:51:25.345Z,0
2016-03-06T00:52:25.316Z,0
2016-03-06T00:53:25.318Z,0
2016-03-06T00:54:25.337Z,0
2016-03-06T00:55:25.323Z,0
2016-03-06T00:56:25.359Z,0
2016-03-06T00:57:25.376Z,0
2016-03-06T00:58:25.348Z,0
2016-03-06T00:59:25.366Z,0
2016-03-06T01:00:25.713Z,0
2016-03-06T01:01:25.372Z,0
2016-03-06T01:02:25.406Z,0
2016-03-06T01:03:25.392Z,0
2016-03-06T01:04:25.427Z,0
2016-03-06T01:05:25.397Z,0
2016-03-06T01:06:25.401Z,0
2016-03-06T01:07:25.435Z,0
2016-03-06T01:08:25.422Z,0
2016-03-06T01:09:25.440Z,0
2016-03-06T01:10:25.432Z,0
2016-03-06T01:11:25.435Z,0
2016-03-06T01:12:25.485Z,0
2016-03-06T01:13:25.455Z,0
2016-03-06T01:14:25.474Z,0
2016-03-06T01:15:25.476Z,0
2016-03-06T01:16:25.463Z,0
2016-03-06T01:17:25.498Z,0
2016-03-06T01:18:25.485Z,0
2016-03-06T01:19:25.487Z,0
2016-03-06T01:20:25.521Z,0
2016-03-06T01:21:25.493Z,0
2016-03-06T01:22:25.542Z,0
2016-03-06T01:23:25.514Z,0
2016-03-06T01:24:25.517Z,0
2016-03-06T01:25:25.534Z,0
2016-03-06T01:26:25.553Z,0
2016-03-06T01:27:25.540Z,0
2016-03-06T01:28:25.575Z,0
2016-03-06T01:29:25.655Z,0
2016-03-06T01:30:25.564Z,0
2016-03-06T01:31:25.613Z,0
2016-03-06T01:32:25.585Z,0
2016-03-06T01:33:25.603Z,0
2016-03-06T01:34:25.591Z,0
2016-03-06T01:35:25.624Z,0
2016-03-06T01:36:25.674Z,0
2016-03-06T01:37:25.629Z,0
2016-03-06T01:38:25.632Z,0
2016-03-06T01:39:25.635Z,0
2016-03-06T01:40:25.669Z,0
2016-03-06T01:41:25.640Z,0
2016-03-06T01:42:25.658Z,0
2016-03-06T01:43:25.661Z,0
2016-03-06T01:44:25.649Z,0
2016-03-06T01:45:25.729Z,0
2016-03-06T01:46:25.654Z,0
2016-03-06T01:47:25.687Z,0
2016-03-06T01:48:25.721Z,0
2016-03-06T01:49:25.677Z,0
2016-03-06T01:50:25.696Z,0
2016-03-06T01:51:25.682Z,0
2016-03-06T01:52:25.717Z,0
2016-03-06T01:53:25.719Z,0
2016-03-06T01:54:25.722Z,0
2016-03-06T01:55:25.756Z,0
2016-03-06T01:56:25.728Z,0
2016-03-06T01:57:25.777Z,0
2016-03-06T01:58:25.764Z,0
2016-03-06T01:59:25.611Z,0
2016-03-06T02:00:25.786Z,0
2016-03-06T02:01:25.631Z,0
2016-03-06T02:02:25.634Z,0
2016-03-06T02:03:25.824Z,0
2016-03-06T02:04:25.780Z,0
2016-03-06T02:05:25.783Z,0
2016-03-06T02:06:25.645Z,0
2016-03-06T02:07:25.804Z,0
2016-03-06T02:08:25.807Z,0
2016-03-06T02:09:25.824Z,0
2016-03-06T02:10:25.812Z,0
2016-03-06T02:11:25.830Z,0
2016-03-06T02:12:25.864Z,0
2016-03-06T02:13:25.835Z,0
2016-03-06T02:14:25.854Z,0
2016-03-06T02:15:25.872Z,0
2016-03-06T02:16:25.860Z,0
2016-03-06T02:17:25.893Z,0
2016-03-06T02:18:25.865Z,0
2016-03-06T02:19:25.882Z,0
2016-03-06T02:20:25.885Z,0
2016-03-06T02:21:25.888Z,0
2016-03-06T02:22:25.922Z,0
2016-03-06T02:23:25.893Z,0
2016-03-06T02:24:25.896Z,0
2016-03-06T02:25:25.914Z,0
2016-03-06T02:26:25.918Z,0
2016-03-06T02:27:25.920Z,0
2016-03-06T02:28:25.954Z,0
2016-03-06T02:29:25.925Z,0
2016-03-06T02:30:25.959Z,0
2016-03-06T02:31:25.947Z,0
2016-03-06T02:32:25.950Z,0
2016-03-06T02:33:25.983Z,0
2016-03-06T02:34:25.955Z,0
2016-03-06T02:35:25.988Z,0
2016-03-06T02:36:25.976Z,0
2016-03-06T02:37:25.994Z,0
2016-03-06T02:38:26.059Z,0
2016-03-06T02:39:25.999Z,0
2016-03-06T02:40:26.002Z,0
2016-03-06T02:41:26.004Z,0
2016-03-06T02:42:26.023Z,0
2016-03-06T02:43:26.041Z,0
2016-03-06T02:44:26.029Z,0
2016-03-06T02:45:26.063Z,0
2016-03-06T02:46:26.065Z,0
2016-03-06T02:47:26.037Z,0
2016-03-06T02:48:26.055Z,0
2016-03-06T02:49:26.104Z,0
2016-03-06T02:50:26.091Z,0
2016-03-06T02:51:26.093Z,0
2016-03-06T02:52:26.065Z,0
2016-03-06T02:53:26.021Z,0
2016-03-06T02:54:26.087Z,0
2016-03-06T02:55:26.120Z,0
2016-03-06T02:56:26.107Z,0
2016-03-06T02:57:26.109Z,0
2016-03-06T02:58:26.144Z,0
2016-03-06T02:59:26.115Z,0
2016-03-06T03:00:26.134Z,0
2016-03-06T03:01:26.136Z,0
2016-03-06T03:02:26.140Z,0
2016-03-06T03:03:26.189Z,0
2016-03-06T03:04:26.161Z,0
2016-03-06T03:05:26.006Z,0
2016-03-06T03:06:26.213Z,0
2016-03-06T03:07:26.199Z,0
2016-03-06T03:08:26.187Z,0
2016-03-06T03:09:26.189Z,0
2016-03-06T03:10:26.192Z,0
2016-03-06T03:11:26.194Z,0
2016-03-06T03:12:26.197Z,0
2016-03-06T03:13:26.246Z,0
2016-03-06T03:14:26.219Z,0
2016-03-06T03:15:26.237Z,0
2016-03-06T03:16:26.271Z,0
2016-03-06T03:17:26.257Z,0
2016-03-06T03:18:26.261Z,0
2016-03-06T03:19:26.248Z,0
2016-03-06T03:20:26.313Z,0
2016-03-06T03:21:26.378Z,0
2016-03-06T03:22:26.256Z,0
2016-03-06T03:23:26.289Z,0
2016-03-06T03:24:26.293Z,0
2016-03-06T03:25:26.342Z,0
2016-03-06T03:26:26.298Z,0
2016-03-06T03:27:26.315Z,0
2016-03-06T03:28:26.365Z,0
2016-03-06T03:29:26.305Z,0
2016-03-06T03:30:26.340Z,0
2016-03-06T03:31:26.358Z,0
2016-03-06T03:32:26.345Z,0
2016-03-06T03:33:26.378Z,0
2016-03-06T03:34:26.335Z,0
2016-03-06T03:35:26.369Z,0
2016-03-06T03:36:26.372Z,0
2016-03-06T03:37:26.358Z,0
2016-03-06T03:38:26.390Z,0
2016-03-06T03:39:26.364Z,0
2016-03-06T03:40:26.382Z,0
2016-03-06T03:41:26.338Z,0
2016-03-06T03:42:26.342Z,0
2016-03-06T03:43:26.346Z,0
2016-03-06T03:44:26.328Z,0
2016-03-06T03:45:26.357Z,0
2016-03-06T03:46:26.182Z,0
2016-03-06T03:47:26.335Z,0
2016-03-06T03:48:26.333Z,0
2016-03-06T03:49:26.334Z,0
2016-03-06T03:50:26.334Z,0
2016-03-06T03:51:26.366Z,0
2016-03-06T03:52:26.351Z,0
2016-03-06T03:53:26.367Z,0
2016-03-06T03:54:26.370Z,0
2016-03-06T03:55:26.372Z,0
2016-03-06T03:56:26.341Z,0
2016-03-06T03:57:26.391Z,0
2016-03-06T03:58:26.394Z,0
2016-03-06T03:59:26.396Z,0
2016-03-06T04:00:26.257Z,0
2016-03-06T04:01:26.384Z,0
2016-03-06T04:02:26.465Z,0
2016-03-06T04:03:26.420Z,0
2016-03-06T04:04:26.407Z,0
2016-03-06T04:05:26.456Z,0
2016-03-06T04:06:26.428Z,0
2016-03-06T04:07:26.446Z,0
2016-03-06T04:08:26.432Z,0
2016-03-06T04:09:26.452Z,0
2016-03-06T04:10:26.438Z,0
2016-03-06T04:11:26.488Z,0
2016-03-06T04:12:26.476Z,0
2016-03-06T04:13:26.478Z,0
2016-03-06T04:14:26.512Z,0
2016-03-06T04:15:26.483Z,0
2016-03-06T04:16:26.501Z,0
2016-03-06T04:17:26.536Z,0
2016-03-06T04:18:26.492Z,0
2016-03-06T04:19:26.525Z,0
2016-03-06T04:20:26.512Z,0
2016-03-06T04:21:26.515Z,0
2016-03-06T04:22:26.564Z,0
2016-03-06T04:23:26.536Z,0
2016-03-06T04:24:26.555Z,0
2016-03-06T04:25:26.572Z,0
2016-03-06T04:26:26.560Z,0
2016-03-06T04:27:26.578Z,0
2016-03-06T04:28:26.581Z,0
2016-03-06T04:29:26.568Z,0
2016-03-06T04:30:26.617Z,0
2016-03-06T04:31:26.588Z,0
2016-03-06T04:32:26.592Z,0
2016-03-06T04:33:26.610Z,0
2016-03-06T04:34:26.612Z,0
2016-03-06T04:35:26.631Z,0
2016-03-06T04:36:26.477Z,0
2016-03-06T04:37:26.621Z,0
2016-03-06T04:38:26.654Z,0
2016-03-06T04:39:26.657Z,0
2016-03-06T04:40:26.644Z,0
2016-03-06T04:41:26.646Z,0
2016-03-06T04:42:26.665Z,0
2016-03-06T04:43:26.668Z,0
2016-03-06T04:44:26.687Z,0
2016-03-06T04:45:26.673Z,0
2016-03-06T04:46:26.676Z,0
2016-03-06T04:47:26.679Z,0
2016-03-06T04:48:26.697Z,0
2016-03-06T04:49:26.700Z,0
2016-03-06T04:50:26.703Z,0
2016-03-06T04:51:26.720Z,0
2016-03-06T04:52:26.723Z,0
2016-03-06T04:53:26.742Z,0
2016-03-06T04:54:26.604Z,0
2016-03-06T04:55:26.732Z,0
2016-03-06T04:56:26.770Z,0
2016-03-06T04:57:26.741Z,0
2016-03-06T04:58:26.760Z,0
2016-03-06T04:59:26.778Z,0
2016-03-06T05:00:26.766Z,0
2016-03-06T05:01:26.799Z,0
2016-03-06T05:02:26.771Z,0
2016-03-06T05:03:26.788Z,0
2016-03-06T05:04:26.792Z,0
2016-03-06T05:05:26.810Z,0
2016-03-06T05:06:26.797Z,0
2016-03-06T05:07:26.799Z,0
2016-03-06T05:08:26.865Z,0
2016-03-06T05:09:26.837Z,0
2016-03-06T05:10:26.839Z,0
2016-03-06T05:11:26.842Z,0
2016-03-06T05:12:26.829Z,0
2016-03-06T05:13:26.862Z,0
2016-03-06T05:14:26.850Z,0
2016-03-06T05:15:26.915Z,0
2016-03-06T05:16:26.871Z,0
2016-03-06T05:17:26.873Z,0
2016-03-06T05:18:26.892Z,0
2016-03-06T05:19:26.879Z,0
2016-03-06T05:20:26.741Z,0
2016-03-06T05:21:26.744Z,0
2016-03-06T05:22:26.903Z,0
2016-03-06T05:23:26.952Z,0
2016-03-06T05:24:26.814Z,0
2016-03-06T05:25:26.927Z,0
2016-03-06T05:26:26.945Z,0
2016-03-06T05:27:26.964Z,0
2016-03-06T05:28:26.950Z,0
2016-03-06T05:29:26.952Z,0
2016-03-06T05:30:26.956Z,0
2016-03-06T05:31:26.958Z,0
2016-03-06T05:32:26.976Z,0
2016-03-06T05:33:26.963Z,0
2016-03-06T05:34:26.997Z,0
2016-03-06T05:35:27.000Z,0
2016-03-06T05:36:26.987Z,0
2016-03-06T05:37:27.005Z,0
2016-03-06T05:38:27.008Z,0
2016-03-06T05:39:27.011Z,0
2016-03-06T05:40:27.013Z,0
2016-03-06T05:41:27.031Z,0
2016-03-06T05:42:27.035Z,0
2016-03-06T05:43:27.037Z,0
2016-03-06T05:44:27.040Z,0
2016-03-06T05:45:58.389Z,0
2016-03-06T05:46:27.045Z,0
2016-03-06T05:47:27.048Z,0
2016-03-06T05:48:27.067Z,0
2016-03-06T05:49:27.069Z,0
2016-03-06T05:50:27.103Z,0
2016-03-06T05:51:27.090Z,0
2016-03-06T05:52:27.108Z,0
2016-03-06T05:53:27.095Z,0
2016-03-06T05:54:27.098Z,0
2016-03-06T05:55:27.132Z,0
2016-03-06T05:56:27.119Z,0
2016-03-06T05:57:27.122Z,0
2016-03-06T05:58:27.140Z,0
2016-03-06T05:59:27.158Z,0
2016-03-06T06:00:27.161Z,0
2016-03-06T06:01:27.148Z,0
2016-03-06T06:02:27.152Z,0
2016-03-06T06:03:27.185Z,0
2016-03-06T06:04:27.171Z,0
2016-03-06T06:05:27.175Z,0
2016-03-06T06:06:27.208Z,0
2016-03-06T06:07:27.195Z,0
2016-03-06T06:08:27.214Z,0
2016-03-06T06:09:27.201Z,0
2016-03-06T06:10:27.204Z,0
2016-03-06T06:11:27.222Z,0
2016-03-06T06:12:27.209Z,0
2016-03-06T06:13:27.212Z,0
2016-03-06T06:14:27.262Z,0
2016-03-06T06:15:27.076Z,0
2016-03-06T06:16:27.250Z,0
2016-03-06T06:17:27.285Z,0
2016-03-06T06:18:27.256Z,0
2016-03-06T06:19:27.275Z,0
2016-03-06T06:20:27.261Z,0
2016-03-06T06:21:27.280Z,0
2016-03-06T06:22:27.330Z,0
2016-03-06T06:23:27.301Z,5
2016-03-06T06:24:27.303Z,5
2016-03-06T06:25:27.306Z,5
2016-03-06T06:26:27.169Z,5
2016-03-06T06:27:27.311Z,5
2016-03-06T06:28:27.331Z,5
2016-03-06T06:29:27.333Z,5
2016-03-06T06:30:27.335Z,5
2016-03-06T06:31:27.213Z,5
2016-03-06T06:32:27.341Z,5
2016-03-06T06:33:27.360Z,10
2016-03-06T06:34:27.362Z,10
2016-03-06T06:35:27.380Z,10
2016-03-06T06:36:27.398Z,10
2016-03-06T06:37:27.371Z,10
2016-03-06T06:38:27.404Z,10
2016-03-06T06:39:27.421Z,10
2016-03-06T06:40:27.410Z,15
2016-03-06T06:41:27.396Z,15
2016-03-06T06:42:27.399Z,15
2016-03-06T06:43:27.417Z,15
2016-03-06T06:44:27.420Z,15
2016-03-06T06:45:27.423Z,15
2016-03-06T06:46:27.457Z,15
2016-03-06T06:47:27.443Z,15
2016-03-06T06:48:27.462Z,15
2016-03-06T06:49:27.449Z,15
2016-03-06T06:50:27.468Z,15
2016-03-06T06:51:27.517Z,15
2016-03-06T06:52:27.488Z,15
2016-03-06T06:53:27.491Z,15
2016-03-06T06:54:27.478Z,15
2016-03-06T06:55:27.480Z,20
2016-03-06T06:56:27.500Z,20
2016-03-06T06:57:27.502Z,20
2016-03-06T06:58:27.505Z,15
2016-03-06T06:59:27.382Z,15
2016-03-06T07:00:27.666Z,15
2016-03-06T07:01:27.528Z,20
2016-03-06T07:02:27.578Z,20
2016-03-06T07:03:27.549Z,20
2016-03-06T07:04:27.568Z,20
2016-03-06T07:05:27.555Z,25
2016-03-06T07:06:27.563Z,25
2016-03-06T07:07:27.581Z,25
2016-03-06T07:08:27.568Z,25
2016-03-06T07:09:27.570Z,25
2016-03-06T07:10:27.589Z,25
2016-03-06T07:11:27.592Z,25
2016-03-06T07:12:27.610Z,25
2016-03-06T07:13:27.628Z,30
2016-03-06T07:14:27.615Z,30
2016-03-06T07:15:27.634Z,30
2016-03-06T07:16:27.651Z,30
2016-03-06T07:17:27.623Z,35
2016-03-06T07:18:27.642Z,35
2016-03-06T07:19:27.644Z,35
2016-03-06T07:20:27.647Z,40
2016-03-06T07:21:27.696Z,40
2016-03-06T07:22:27.667Z,40
2016-03-06T07:23:27.670Z,40
2016-03-06T07:24:27.705Z,45
2016-03-06T07:25:27.675Z,45
2016-03-06T07:26:27.694Z,45
2016-03-06T07:27:27.697Z,45
2016-03-06T07:28:27.700Z,45
2016-03-06T07:29:27.733Z,45
2016-03-06T07:30:27.721Z,45
2016-03-06T07:31:27.724Z,45
2016-03-06T07:32:27.742Z,50
2016-03-06T07:33:27.729Z,50
2016-03-06T07:34:27.763Z,50
2016-03-06T07:35:27.749Z,50
2016-03-06T07:36:27.768Z,50
2016-03-06T07:37:27.755Z,50
2016-03-06T07:38:27.757Z,55
2016-03-06T07:39:27.792Z,55
2016-03-06T07:40:27.763Z,55
2016-03-06T07:41:27.781Z,55
2016-03-06T07:42:27.815Z,55
2016-03-06T07:43:27.803Z,55
2016-03-06T07:44:27.821Z,60
2016-03-06T07:45:27.823Z,60
2016-03-06T07:46:27.811Z,60
2016-03-06T07:47:27.845Z,65
2016-03-06T07:48:27.831Z,65
2016-03-06T07:49:27.850Z,70
2016-03-06T07:50:27.884Z,70
2016-03-06T07:51:27.855Z,75
2016-03-06T07:52:27.873Z,75
2016-03-06T07:53:27.891Z,75
2016-03-06T07:54:27.878Z,80
2016-03-06T07:55:27.897Z,80
2016-03-06T07:56:27.915Z,85
2016-03-06T07:57:27.886Z,85
2016-03-06T07:58:27.921Z,85
2016-03-06T07:59:27.924Z,80
2016-03-06T08:00:27.911Z,85
2016-03-06T08:01:27.944Z,85
2016-03-06T08:02:27.932Z,90
2016-03-06T08:03:27.950Z,90
2016-03-06T08:04:27.984Z,95
2016-03-06T08:05:27.955Z,100
2016-03-06T08:06:27.965Z,95
2016-03-06T08:07:27.969Z,95
2016-03-06T08:08:28.002Z,105
2016-03-06T08:09:27.974Z,100
2016-03-06T08:10:28.039Z,100
2016-03-06T08:11:27.995Z,130
2016-03-06T08:12:28.012Z,265
2016-03-06T08:13:28.000Z,350
2016-03-06T08:14:28.050Z,370
2016-03-06T08:15:28.053Z,340
2016-03-06T08:16:28.039Z,360
2016-03-06T08:17:28.058Z,390
2016-03-06T08:18:28.044Z,395
2016-03-06T08:19:28.079Z,175
2016-03-06T08:20:28.066Z,440
2016-03-06T08:21:28.084Z,310
2016-03-06T08:22:28.117Z,450
2016-03-06T08:23:28.090Z,480
2016-03-06T08:24:28.123Z,490
2016-03-06T08:25:28.110Z,520
2016-03-06T08:26:28.161Z,465
2016-03-06T08:27:28.147Z,515
2016-03-06T08:28:28.197Z,550
2016-03-06T08:29:28.168Z,520
2016-03-06T08:30:28.202Z,540
2016-03-06T08:31:28.188Z,525
2016-03-06T08:32:28.207Z,575
2016-03-06T08:33:28.241Z,430
2016-03-06T08:34:28.228Z,550
2016-03-06T08:35:28.590Z,510
2016-03-06T08:36:28.265Z,580
2016-03-06T08:37:28.252Z,600
2016-03-06T08:38:28.270Z,610
2016-03-06T08:39:28.164Z,640
2016-03-06T08:40:28.307Z,615
2016-03-06T08:41:28.309Z,615
2016-03-06T08:42:28.344Z,465
2016-03-06T08:43:28.378Z,285
2016-03-06T08:44:28.349Z,250
2016-03-06T08:45:28.368Z,250
2016-03-06T08:46:28.448Z,240
2016-03-06T08:47:28.389Z,250
2016-03-06T08:48:28.406Z,185
2016-03-06T08:49:28.409Z,250
2016-03-06T08:50:28.428Z,250
2016-03-06T08:51:28.461Z,245
2016-03-06T08:52:28.465Z,230
2016-03-06T08:53:28.483Z,230
2016-03-06T08:54:28.501Z,250
2016-03-06T08:55:28.347Z,275
2016-03-06T08:56:28.522Z,440
2016-03-06T08:57:28.541Z,630
2016-03-06T08:58:28.543Z,700
2016-03-06T08:59:28.561Z,695
2016-03-06T09:00:28.924Z,690
2016-03-06T09:01:28.567Z,720
2016-03-06T09:02:28.600Z,680
2016-03-06T09:03:28.603Z,610
2016-03-06T09:04:28.638Z,675
2016-03-06T09:05:28.640Z,650
2016-03-06T09:06:28.642Z,675
2016-03-06T09:07:28.661Z,680
2016-03-06T09:08:28.663Z,695
2016-03-06T09:09:28.698Z,665
2016-03-06T09:10:28.716Z,685
2016-03-06T09:11:28.781Z,450
2016-03-06T09:12:28.721Z,605
2016-03-06T09:13:28.740Z,625
2016-03-06T09:14:28.742Z,565
2016-03-06T09:15:28.760Z,620
2016-03-06T09:16:28.795Z,590
2016-03-06T09:17:28.781Z,555
2016-03-06T09:18:28.848Z,350
2016-03-06T09:19:28.834Z,375
2016-03-06T09:20:28.820Z,565
2016-03-06T09:21:28.699Z,535
2016-03-06T09:22:28.858Z,515
2016-03-06T09:23:28.860Z,565
2016-03-06T09:24:28.925Z,585
2016-03-06T09:25:28.897Z,610
2016-03-06T09:26:28.900Z,565
2016-03-06T09:27:28.933Z,555
2016-03-06T09:28:28.936Z,580
2016-03-06T09:29:28.969Z,260
2016-03-06T09:30:28.972Z,525
2016-03-06T09:31:28.975Z,315
2016-03-06T09:32:28.994Z,230
2016-03-06T09:33:29.013Z,130
2016-03-06T09:34:29.030Z,135
2016-03-06T09:35:29.049Z,125
2016-03-06T09:36:28.911Z,120
2016-03-06T09:37:29.054Z,115
2016-03-06T09:38:29.057Z,135
2016-03-06T09:39:29.060Z,130
2016-03-06T09:40:29.109Z,120
2016-03-06T09:41:29.080Z,125
2016-03-06T09:42:29.115Z,110
2016-03-06T09:43:29.118Z,110
2016-03-06T09:44:29.120Z,105
2016-03-06T09:45:29.137Z,135
2016-03-06T09:46:29.141Z,135
2016-03-06T09:47:29.143Z,130
2016-03-06T09:48:29.161Z,110
2016-03-06T09:49:29.165Z,100
2016-03-06T09:50:29.183Z,120
2016-03-06T09:51:29.186Z,115
2016-03-06T09:52:29.220Z,115
2016-03-06T09:53:29.206Z,105
2016-03-06T09:54:29.209Z,120
2016-03-06T09:55:29.259Z,115
2016-03-06T09:56:29.230Z,110
2016-03-06T09:57:29.233Z,110
2016-03-06T09:58:29.251Z,115
2016-03-06T09:59:29.270Z,115
2016-03-06T10:00:29.272Z,115
2016-03-06T10:01:29.274Z,100
2016-03-06T10:02:29.278Z,110
2016-03-06T10:03:29.124Z,110
2016-03-06T10:04:29.141Z,105
2016-03-06T10:05:29.286Z,100
2016-03-06T10:06:29.319Z,100
2016-03-06T10:07:29.322Z,105
2016-03-06T10:08:29.325Z,110
2016-03-06T10:09:29.327Z,105
2016-03-06T10:10:29.252Z,105
2016-03-06T10:11:29.365Z,105
2016-03-06T10:12:29.382Z,105
2016-03-06T10:13:29.370Z,100
2016-03-06T10:14:29.373Z,85
2016-03-06T10:15:29.375Z,80
2016-03-06T10:16:29.379Z,75
2016-03-06T10:17:29.396Z,95
2016-03-06T10:18:29.398Z,90
2016-03-06T10:19:29.417Z,75
2016-03-06T10:20:29.420Z,85
2016-03-06T10:21:29.422Z,85
2016-03-06T10:22:29.425Z,90
2016-03-06T10:23:29.443Z,80
2016-03-06T10:24:29.446Z,80
2016-03-06T10:25:29.464Z,90
2016-03-06T10:26:29.483Z,95
2016-03-06T10:27:29.470Z,90
2016-03-06T10:28:29.488Z,85
2016-03-06T10:29:29.475Z,90
2016-03-06T10:30:29.509Z,85
2016-03-06T10:31:29.511Z,80
2016-03-06T10:32:29.515Z,75
2016-03-06T10:33:29.549Z,75
2016-03-06T10:34:29.535Z,75
2016-03-06T10:35:29.555Z,80
2016-03-06T10:36:29.541Z,70
2016-03-06T10:37:29.543Z,70
2016-03-06T10:38:29.608Z,65
2016-03-06T10:39:29.565Z,65
2016-03-06T10:40:29.583Z,70
2016-03-06T10:41:29.601Z,70
2016-03-06T10:42:29.541Z,70
2016-03-06T10:43:29.669Z,70
2016-03-06T10:44:29.624Z,75
2016-03-06T10:45:49.865Z,70
2016-03-06T10:46:29.630Z,70
2016-03-06T10:47:29.617Z,70
2016-03-06T10:48:29.636Z,65
2016-03-06T10:49:29.638Z,65
2016-03-06T10:50:29.640Z,65
2016-03-06T10:51:29.675Z,65
2016-03-06T10:52:29.645Z,65
2016-03-06T10:53:29.665Z,60
2016-03-06T10:54:29.667Z,55
2016-03-06T10:55:29.686Z,55
2016-03-06T10:56:29.689Z,55
2016-03-06T10:57:29.691Z,55
2016-03-06T10:58:29.694Z,50
2016-03-06T10:59:29.728Z,60
2016-03-06T11:00:29.730Z,60
2016-03-06T11:01:29.749Z,55
2016-03-06T11:02:29.736Z,55
2016-03-06T11:03:29.739Z,55
2016-03-06T11:04:29.741Z,50
2016-03-06T11:05:29.728Z,50
2016-03-06T11:06:29.731Z,45
2016-03-06T11:07:29.765Z,45
2016-03-06T11:08:29.735Z,45
2016-03-06T11:09:29.739Z,45
2016-03-06T11:10:29.741Z,45
2016-03-06T11:11:29.760Z,45
2016-03-06T11:12:29.746Z,45
2016-03-06T11:13:29.749Z,45
2016-03-06T11:14:29.737Z,45
2016-03-06T11:15:57.976Z,45
2016-03-06T11:16:29.742Z,45
2016-03-06T11:17:29.760Z,50
2016-03-06T11:18:29.763Z,50
2016-03-06T11:19:29.751Z,55
2016-03-06T11:20:29.753Z,60
2016-03-06T11:21:29.771Z,65
2016-03-06T11:22:29.759Z,65
2016-03-06T11:23:29.776Z,65
2016-03-06T11:24:29.748Z,65
2016-03-06T11:25:29.797Z,60
2016-03-06T11:26:29.770Z,55
2016-03-06T11:27:29.756Z,60
2016-03-06T11:28:29.758Z,60
2016-03-06T11:29:29.762Z,60
2016-03-06T11:30:29.764Z,60
2016-03-06T11:31:29.766Z,60
2016-03-06T11:32:29.770Z,60
2016-03-06T11:33:29.756Z,60
2016-03-06T11:34:29.775Z,65
2016-03-06T11:35:29.762Z,65
2016-03-06T11:36:29.764Z,60
2016-03-06T11:37:29.752Z,60
2016-03-06T11:38:29.760Z,55
2016-03-06T11:39:29.607Z,55
2016-03-06T11:40:29.766Z,55
2016-03-06T11:41:29.752Z,55
2016-03-06T11:42:29.803Z,60
2016-03-06T11:43:29.742Z,60
2016-03-06T11:44:29.744Z,65
2016-03-06T11:45:29.764Z,65
2016-03-06T11:46:29.766Z,75
2016-03-06T11:47:29.753Z,75
2016-03-06T11:48:29.756Z,75
2016-03-06T11:49:29.743Z,80
2016-03-06T11:50:29.746Z,80
2016-03-06T11:51:29.748Z,80
2016-03-06T11:52:29.751Z,80
2016-03-06T11:53:29.754Z,85
2016-03-06T11:54:29.757Z,80
2016-03-06T11:55:29.759Z,75
2016-03-06T11:56:29.746Z,70
2016-03-06T11:57:29.780Z,70
2016-03-06T11:58:29.751Z,70
2016-03-06T11:59:29.770Z,70
2016-03-06T12:00:29.585Z,70
2016-03-06T12:01:29.759Z,75
2016-03-06T12:02:29.763Z,80
2016-03-06T12:03:29.750Z,80
2016-03-06T12:04:29.737Z,75
2016-03-06T12:05:29.770Z,75
2016-03-06T12:06:29.772Z,75
2016-03-06T12:07:30.042Z,80
2016-03-06T12:08:29.763Z,80
2016-03-06T12:09:29.766Z,80
2016-03-06T12:10:29.784Z,80
2016-03-06T12:11:29.739Z,75
2016-03-06T12:12:29.758Z,75
2016-03-06T12:13:29.761Z,75
2016-03-06T12:14:29.763Z,70
2016-03-06T12:15:38.800Z,65
2016-03-06T12:16:29.753Z,65
2016-03-06T12:17:29.787Z,65
2016-03-06T12:18:29.758Z,70
2016-03-06T12:19:29.745Z,70
2016-03-06T12:20:29.779Z,70
2016-03-06T12:21:29.782Z,70
2016-03-06T12:22:29.769Z,65
2016-03-06T12:23:29.756Z,65
2016-03-06T12:24:29.760Z,65
2016-03-06T12:25:29.762Z,65
2016-03-06T12:26:29.764Z,65
2016-03-06T12:27:29.768Z,65
2016-03-06T12:28:29.754Z,70
2016-03-06T12:29:29.756Z,70
2016-03-06T12:30:29.743Z,75
2016-03-06T12:31:29.763Z,75
2016-03-06T12:32:29.781Z,80
2016-03-06T12:33:29.767Z,80
2016-03-06T12:34:29.770Z,80
2016-03-06T12:35:29.773Z,80
2016-03-06T12:36:29.759Z,80
2016-03-06T12:37:29.747Z,80
2016-03-06T12:38:29.750Z,80
2016-03-06T12:39:29.768Z,75
2016-03-06T12:40:29.770Z,75
2016-03-06T12:41:29.758Z,75
2016-03-06T12:42:29.761Z,75
2016-03-06T12:43:29.747Z,80
2016-03-06T12:44:29.766Z,60
2016-03-06T12:45:49.991Z,65
2016-03-06T12:46:29.726Z,65
2016-03-06T12:47:29.747Z,60
2016-03-06T12:48:29.706Z,60
2016-03-06T12:49:29.680Z,60
2016-03-06T12:50:29.702Z,65
2016-03-06T12:51:29.716Z,65
2016-03-06T12:52:29.715Z,60
2016-03-06T12:53:29.682Z,60
2016-03-06T12:54:29.681Z,60
2016-03-06T12:55:29.711Z,60
2016-03-06T12:56:29.696Z,60
2016-03-06T12:57:29.713Z,60
2016-03-06T12:58:29.683Z,55
2016-03-06T12:59:29.685Z,55
2016-03-06T13:00:29.717Z,55
2016-03-06T13:01:29.734Z,55
2016-03-06T13:02:29.705Z,50
2016-03-06T13:03:29.722Z,50
2016-03-06T13:04:29.725Z,50
2016-03-06T13:05:29.726Z,45
2016-03-06T13:06:29.743Z,45
2016-03-06T13:07:29.746Z,45
2016-03-06T13:08:29.781Z,45
2016-03-06T13:09:29.751Z,40
2016-03-06T13:10:29.738Z,40
2016-03-06T13:11:29.756Z,40
2016-03-06T13:12:29.774Z,40
2016-03-06T13:13:29.761Z,40
2016-03-06T13:14:29.764Z,40
2016-03-06T13:15:29.798Z,40
2016-03-06T13:16:29.817Z,40
2016-03-06T13:17:29.788Z,45
2016-03-06T13:18:29.806Z,45
2016-03-06T13:19:29.841Z,45
2016-03-06T13:20:29.827Z,45
2016-03-06T13:21:29.830Z,50
2016-03-06T13:22:29.817Z,55
2016-03-06T13:23:29.835Z,100
2016-03-06T13:24:29.823Z,70
2016-03-06T13:25:36.275Z,75
2016-03-06T13:26:29.646Z,65
2016-03-06T13:27:29.950Z,45
2016-03-06T13:28:31.403Z,40
2016-03-06T13:29:30.108Z,40
2016-03-06T13:30:29.892Z,40
2016-03-06T13:31:30.004Z,40
2016-03-06T13:32:29.897Z,35
2016-03-06T13:33:29.916Z,35
2016-03-06T13:34:29.888Z,30
2016-03-06T13:35:29.921Z,30
2016-03-06T13:36:29.924Z,25
2016-03-06T13:37:29.926Z,25
2016-03-06T13:38:29.912Z,25
2016-03-06T13:39:29.915Z,25
2016-03-06T13:40:29.981Z,25
2016-03-06T13:41:29.827Z,25
2016-03-06T13:42:29.939Z,25
2016-03-06T13:43:29.958Z,25
2016-03-06T13:44:29.976Z,25
2016-03-06T13:45:29.822Z,25
2016-03-06T13:46:29.965Z,25
2016-03-06T13:47:29.984Z,20
2016-03-06T13:48:30.033Z,15
2016-03-06T13:49:30.005Z,15
2016-03-06T13:50:29.992Z,15
2016-03-06T13:51:29.994Z,15
2016-03-06T13:52:30.013Z,10
2016-03-06T13:53:30.016Z,10
2016-03-06T13:54:30.018Z,10
2016-03-06T13:55:30.037Z,10
2016-03-06T13:56:30.040Z,10
2016-03-06T13:57:30.088Z,10
2016-03-06T13:58:30.061Z,10
2016-03-06T13:59:29.907Z,5
2016-03-06T14:00:30.066Z,5
2016-03-06T14:01:30.054Z,5
2016-03-06T14:02:30.088Z,5
2016-03-06T14:03:30.074Z,5
2016-03-06T14:04:30.093Z,5
2016-03-06T14:05:30.095Z,5
2016-03-06T14:06:30.077Z,5
2016-03-06T14:07:30.112Z,5
2016-03-06T14:08:30.129Z,5
2016-03-06T14:09:30.117Z,0
2016-03-06T14:10:30.166Z,0
2016-03-06T14:11:30.137Z,0
2016-03-06T14:12:30.171Z,0
2016-03-06T14:13:30.128Z,0
2016-03-06T14:14:30.146Z,0
2016-03-06T14:15:30.148Z,0
2016-03-06T14:16:30.151Z,0
2016-03-06T14:17:30.153Z,0
2016-03-06T14:18:30.172Z,0
2016-03-06T14:19:30.175Z,0
2016-03-06T14:20:30.208Z,0
2016-03-06T14:21:30.181Z,0
2016-03-06T14:22:30.214Z,0
2016-03-06T14:23:30.483Z,0
2016-03-06T14:24:30.219Z,0
2016-03-06T14:25:30.222Z,0
2016-03-06T14:26:30.241Z,0